sensor_id;sensor_type;location;lat;lon;timestamp;P1;durP1;ratioP1;P2;durP2;ratioP2
60919;SDS011;59039;52.108;19.942;2022-12-04T00:01:51;96.50;;;30.90;;
60919;SDS011;59039;52.108;19.942;2022-12-04T00:04:16;101.00;;;30.40;;
60919;SDS011;59039;52.108;19.942;2022-12-04T00:06:42;93.60;;;30.60;;
60919;SDS011;59039;52.108;19.942;2022-12-04T00:09:07;91.80;;;32.40;;
60919;SDS011;59039;52.108;19.942;2022-12-04T00:11:32;85.80;;;28.90;;
60919;SDS011;59039;52.108;19.942;2022-12-04T00:13:58;84.30;;;27.70;;
60919;SDS011;59039;52.108;19.942;2022-12-04T00:16:25;90.80;;;28.70;;
60919;SDS011;59039;52.108;19.942;2022-12-04T00:18:51;92.50;;;29.00;;
60919;SDS011;59039;52.108;19.942;2022-12-04T00:21:17;78.70;;;28.90;;
60919;SDS011;59039;52.108;19.942;2022-12-04T00:23:44;86.30;;;28.90;;
60919;SDS011;59039;52.108;19.942;2022-12-04T00:26:14;93.90;;;29.60;;
60919;SDS011;59039;52.108;19.942;2022-12-04T00:28:43;94.80;;;30.70;;
60919;SDS011;59039;52.108;19.942;2022-12-04T00:31:09;76.40;;;27.20;;
60919;SDS011;59039;52.108;19.942;2022-12-04T00:33:36;73.20;;;25.50;;
60919;SDS011;59039;52.108;19.942;2022-12-04T00:36:03;91.60;;;31.50;;
60919;SDS011;59039;52.108;19.942;2022-12-04T00:38:30;82.80;;;27.50;;
60919;SDS011;59039;52.108;19.942;2022-12-04T00:40:55;79.50;;;27.50;;
60919;SDS011;59039;52.108;19.942;2022-12-04T00:43:21;84.10;;;27.60;;
60919;SDS011;59039;52.108;19.942;2022-12-04T00:45:47;81.10;;;26.40;;
60919;SDS011;59039;52.108;19.942;2022-12-04T00:48:13;83.70;;;26.70;;
60919;SDS011;59039;52.108;19.942;2022-12-04T00:50:38;76.60;;;25.30;;
60919;SDS011;59039;52.108;19.942;2022-12-04T00:53:03;80.10;;;26.40;;
60919;SDS011;59039;52.108;19.942;2022-12-04T00:55:29;89.30;;;27.80;;
60919;SDS011;59039;52.108;19.942;2022-12-04T00:57:54;68.00;;;22.50;;
60919;SDS011;59039;52.108;19.942;2022-12-04T01:00:19;93.10;;;28.80;;
60919;SDS011;59039;52.108;19.942;2022-12-04T01:02:45;88.10;;;27.60;;
60919;SDS011;59039;52.108;19.942;2022-12-04T01:05:10;82.60;;;28.60;;
60919;SDS011;59039;52.108;19.942;2022-12-04T01:07:36;81.90;;;26.00;;
60919;SDS011;59039;52.108;19.942;2022-12-04T01:10:02;94.40;;;29.40;;
60919;SDS011;59039;52.108;19.942;2022-12-04T01:12:29;72.60;;;26.40;;
60919;SDS011;59039;52.108;19.942;2022-12-04T01:14:54;82.50;;;27.70;;
60919;SDS011;59039;52.108;19.942;2022-12-04T01:17:20;73.90;;;24.60;;
60919;SDS011;59039;52.108;19.942;2022-12-04T01:19:45;70.90;;;24.60;;
60919;SDS011;59039;52.108;19.942;2022-12-04T01:22:10;77.50;;;26.20;;
60919;SDS011;59039;52.108;19.942;2022-12-04T01:24:35;64.20;;;22.60;;
60919;SDS011;59039;52.108;19.942;2022-12-04T01:27:00;79.10;;;28.60;;
60919;SDS011;59039;52.108;19.942;2022-12-04T01:29:26;80.20;;;26.20;;
60919;SDS011;59039;52.108;19.942;2022-12-04T01:31:51;71.60;;;26.00;;
60919;SDS011;59039;52.108;19.942;2022-12-04T01:34:16;64.10;;;22.10;;
60919;SDS011;59039;52.108;19.942;2022-12-04T01:36:41;81.60;;;26.70;;
60919;SDS011;59039;52.108;19.942;2022-12-04T01:39:06;79.00;;;26.70;;
60919;SDS011;59039;52.108;19.942;2022-12-04T01:41:31;71.60;;;24.80;;
60919;SDS011;59039;52.108;19.942;2022-12-04T01:44:07;71.80;;;24.30;;
60919;SDS011;59039;52.108;19.942;2022-12-04T01:46:36;74.10;;;24.30;;
60919;SDS011;59039;52.108;19.942;2022-12-04T01:49:02;67.50;;;22.60;;
60919;SDS011;59039;52.108;19.942;2022-12-04T01:51:29;52.20;;;19.30;;
60919;SDS011;59039;52.108;19.942;2022-12-04T01:54:02;69.70;;;27.50;;
60919;SDS011;59039;52.108;19.942;2022-12-04T01:56:32;55.10;;;19.90;;
60919;SDS011;59039;52.108;19.942;2022-12-04T01:59:02;57.00;;;21.20;;
60919;SDS011;59039;52.108;19.942;2022-12-04T02:01:30;64.00;;;23.80;;
60919;SDS011;59039;52.108;19.942;2022-12-04T02:04:02;59.10;;;21.20;;
60919;SDS011;59039;52.108;19.942;2022-12-04T02:06:27;74.30;;;23.00;;
60919;SDS011;59039;52.108;19.942;2022-12-04T02:08:52;62.60;;;21.50;;
60919;SDS011;59039;52.108;19.942;2022-12-04T02:17:07;62.30;;;21.40;;
60919;SDS011;59039;52.108;19.942;2022-12-04T02:19:55;61.30;;;22.40;;
60919;SDS011;59039;52.108;19.942;2022-12-04T02:25:29;65.50;;;21.90;;
60919;SDS011;59039;52.108;19.942;2022-12-04T02:28:13;61.80;;;21.30;;
60919;SDS011;59039;52.108;19.942;2022-12-04T02:30:47;69.60;;;24.20;;
60919;SDS011;59039;52.108;19.942;2022-12-04T02:33:19;70.00;;;23.60;;
60919;SDS011;59039;52.108;19.942;2022-12-04T02:35:50;67.70;;;22.50;;
60919;SDS011;59039;52.108;19.942;2022-12-04T02:38:36;67.50;;;22.40;;
60919;SDS011;59039;52.108;19.942;2022-12-04T02:41:07;62.30;;;22.40;;
60919;SDS011;59039;52.108;19.942;2022-12-04T02:43:38;66.40;;;22.80;;
60919;SDS011;59039;52.108;19.942;2022-12-04T02:46:09;62.40;;;21.40;;
60919;SDS011;59039;52.108;19.942;2022-12-04T02:48:40;66.20;;;22.30;;
60919;SDS011;59039;52.108;19.942;2022-12-04T02:51:09;66.60;;;24.10;;
60919;SDS011;59039;52.108;19.942;2022-12-04T02:53:39;49.40;;;17.90;;
60919;SDS011;59039;52.108;19.942;2022-12-04T02:56:19;69.10;;;22.90;;
60919;SDS011;59039;52.108;19.942;2022-12-04T02:58:53;56.00;;;21.70;;
60919;SDS011;59039;52.108;19.942;2022-12-04T03:01:23;63.90;;;21.00;;
60919;SDS011;59039;52.108;19.942;2022-12-04T03:03:56;65.30;;;20.30;;
60919;SDS011;59039;52.108;19.942;2022-12-04T03:06:43;63.50;;;21.50;;
60919;SDS011;59039;52.108;19.942;2022-12-04T03:09:15;57.40;;;22.70;;
60919;SDS011;59039;52.108;19.942;2022-12-04T03:11:47;66.00;;;20.60;;
60919;SDS011;59039;52.108;19.942;2022-12-04T03:14:18;71.60;;;22.40;;
60919;SDS011;59039;52.108;19.942;2022-12-04T03:16:47;71.80;;;21.60;;
60919;SDS011;59039;52.108;19.942;2022-12-04T03:19:20;66.80;;;23.00;;
60919;SDS011;59039;52.108;19.942;2022-12-04T03:21:50;66.60;;;21.20;;
60919;SDS011;59039;52.108;19.942;2022-12-04T03:30:01;69.60;;;21.20;;
60919;SDS011;59039;52.108;19.942;2022-12-04T03:32:32;61.10;;;20.10;;
60919;SDS011;59039;52.108;19.942;2022-12-04T03:37:38;54.20;;;19.30;;
60919;SDS011;59039;52.108;19.942;2022-12-04T03:40:23;67.60;;;22.00;;
60919;SDS011;59039;52.108;19.942;2022-12-04T03:42:55;56.90;;;21.00;;
60919;SDS011;59039;52.108;19.942;2022-12-04T03:48:23;66.70;;;22.70;;
60919;SDS011;59039;52.108;19.942;2022-12-04T03:50:57;62.80;;;21.80;;
60919;SDS011;59039;52.108;19.942;2022-12-04T03:53:31;64.10;;;20.60;;
60919;SDS011;59039;52.108;19.942;2022-12-04T03:56:10;60.40;;;21.70;;
60919;SDS011;59039;52.108;19.942;2022-12-04T03:58:42;62.60;;;21.40;;
60919;SDS011;59039;52.108;19.942;2022-12-04T04:01:22;60.10;;;22.50;;
60919;SDS011;59039;52.108;19.942;2022-12-04T04:03:52;57.40;;;19.90;;
60919;SDS011;59039;52.108;19.942;2022-12-04T04:06:25;75.70;;;23.60;;
60919;SDS011;59039;52.108;19.942;2022-12-04T04:08:55;67.40;;;21.90;;
60919;SDS011;59039;52.108;19.942;2022-12-04T04:11:26;72.70;;;22.50;;
60919;SDS011;59039;52.108;19.942;2022-12-04T04:13:56;74.70;;;24.50;;
60919;SDS011;59039;52.108;19.942;2022-12-04T04:16:25;72.30;;;25.70;;
60919;SDS011;59039;52.108;19.942;2022-12-04T04:18:53;52.20;;;18.00;;
60919;SDS011;59039;52.108;19.942;2022-12-04T04:21:22;75.90;;;23.70;;
60919;SDS011;59039;52.108;19.942;2022-12-04T04:23:52;54.50;;;17.40;;
60919;SDS011;59039;52.108;19.942;2022-12-04T04:26:17;72.60;;;27.00;;
60919;SDS011;59039;52.108;19.942;2022-12-04T04:28:43;68.30;;;22.40;;
60919;SDS011;59039;52.108;19.942;2022-12-04T04:33:46;72.00;;;22.90;;
60919;SDS011;59039;52.108;19.942;2022-12-04T04:36:39;67.60;;;23.50;;
60919;SDS011;59039;52.108;19.942;2022-12-04T04:41:57;65.10;;;20.80;;
60919;SDS011;59039;52.108;19.942;2022-12-04T04:44:32;67.10;;;24.50;;
60919;SDS011;59039;52.108;19.942;2022-12-04T04:47:04;74.70;;;23.20;;
60919;SDS011;59039;52.108;19.942;2022-12-04T04:49:32;66.30;;;21.40;;
60919;SDS011;59039;52.108;19.942;2022-12-04T04:52:01;70.20;;;22.20;;
60919;SDS011;59039;52.108;19.942;2022-12-04T04:54:27;70.50;;;24.90;;
60919;SDS011;59039;52.108;19.942;2022-12-04T04:56:54;73.30;;;25.40;;
60919;SDS011;59039;52.108;19.942;2022-12-04T04:59:19;67.70;;;23.10;;
60919;SDS011;59039;52.108;19.942;2022-12-04T05:01:44;75.00;;;22.70;;
60919;SDS011;59039;52.108;19.942;2022-12-04T05:04:11;76.90;;;25.20;;
60919;SDS011;59039;52.108;19.942;2022-12-04T05:06:36;69.60;;;25.60;;
60919;SDS011;59039;52.108;19.942;2022-12-04T05:09:02;73.00;;;24.60;;
60919;SDS011;59039;52.108;19.942;2022-12-04T05:11:28;78.80;;;25.40;;
60919;SDS011;59039;52.108;19.942;2022-12-04T05:13:53;61.40;;;21.90;;
60919;SDS011;59039;52.108;19.942;2022-12-04T05:16:18;57.00;;;21.10;;
60919;SDS011;59039;52.108;19.942;2022-12-04T05:18:43;69.30;;;22.80;;
60919;SDS011;59039;52.108;19.942;2022-12-04T05:21:11;61.60;;;22.20;;
60919;SDS011;59039;52.108;19.942;2022-12-04T05:23:37;65.00;;;21.70;;
60919;SDS011;59039;52.108;19.942;2022-12-04T05:26:03;63.50;;;22.80;;
60919;SDS011;59039;52.108;19.942;2022-12-04T05:28:29;70.40;;;22.50;;
60919;SDS011;59039;52.108;19.942;2022-12-04T05:30:58;61.40;;;21.50;;
60919;SDS011;59039;52.108;19.942;2022-12-04T05:33:25;65.10;;;23.30;;
60919;SDS011;59039;52.108;19.942;2022-12-04T05:38:30;58.30;;;20.00;;
60919;SDS011;59039;52.108;19.942;2022-12-04T05:40:58;45.60;;;17.00;;
60919;SDS011;59039;52.108;19.942;2022-12-04T05:43:24;60.50;;;20.60;;
60919;SDS011;59039;52.108;19.942;2022-12-04T05:45:50;68.00;;;21.90;;
60919;SDS011;59039;52.108;19.942;2022-12-04T05:48:15;60.50;;;19.60;;
60919;SDS011;59039;52.108;19.942;2022-12-04T05:50:40;59.20;;;19.80;;
60919;SDS011;59039;52.108;19.942;2022-12-04T05:53:06;55.50;;;19.80;;
60919;SDS011;59039;52.108;19.942;2022-12-04T05:55:31;47.60;;;17.50;;
60919;SDS011;59039;52.108;19.942;2022-12-04T05:57:56;61.60;;;20.50;;
60919;SDS011;59039;52.108;19.942;2022-12-04T06:00:21;63.30;;;19.40;;
60919;SDS011;59039;52.108;19.942;2022-12-04T06:02:47;65.70;;;22.10;;
60919;SDS011;59039;52.108;19.942;2022-12-04T06:05:12;50.70;;;19.40;;
60919;SDS011;59039;52.108;19.942;2022-12-04T06:07:37;63.20;;;19.30;;
60919;SDS011;59039;52.108;19.942;2022-12-04T06:10:03;55.70;;;20.00;;
60919;SDS011;59039;52.108;19.942;2022-12-04T06:12:29;55.70;;;16.40;;
60919;SDS011;59039;52.108;19.942;2022-12-04T06:14:54;39.40;;;14.60;;
60919;SDS011;59039;52.108;19.942;2022-12-04T06:17:19;51.50;;;17.60;;
60919;SDS011;59039;52.108;19.942;2022-12-04T06:19:45;45.80;;;16.90;;
60919;SDS011;59039;52.108;19.942;2022-12-04T06:22:10;48.90;;;16.40;;
60919;SDS011;59039;52.108;19.942;2022-12-04T06:24:35;51.30;;;17.90;;
60919;SDS011;59039;52.108;19.942;2022-12-04T06:27:00;50.10;;;17.20;;
60919;SDS011;59039;52.108;19.942;2022-12-04T06:29:26;52.50;;;17.00;;
60919;SDS011;59039;52.108;19.942;2022-12-04T06:31:51;53.10;;;16.90;;
60919;SDS011;59039;52.108;19.942;2022-12-04T06:34:16;52.00;;;19.20;;
60919;SDS011;59039;52.108;19.942;2022-12-04T06:36:41;56.60;;;19.50;;
60919;SDS011;59039;52.108;19.942;2022-12-04T06:39:07;55.40;;;18.30;;
60919;SDS011;59039;52.108;19.942;2022-12-04T06:41:33;57.60;;;18.00;;
60919;SDS011;59039;52.108;19.942;2022-12-04T06:43:58;47.90;;;17.40;;
60919;SDS011;59039;52.108;19.942;2022-12-04T06:46:25;50.80;;;17.80;;
60919;SDS011;59039;52.108;19.942;2022-12-04T06:48:53;42.80;;;16.60;;
60919;SDS011;59039;52.108;19.942;2022-12-04T06:51:23;41.00;;;15.20;;
60919;SDS011;59039;52.108;19.942;2022-12-04T06:53:52;46.40;;;19.00;;
60919;SDS011;59039;52.108;19.942;2022-12-04T06:56:19;52.30;;;17.90;;
60919;SDS011;59039;52.108;19.942;2022-12-04T06:58:46;45.10;;;17.20;;
60919;SDS011;59039;52.108;19.942;2022-12-04T07:01:14;46.30;;;17.00;;
60919;SDS011;59039;52.108;19.942;2022-12-04T07:03:42;52.70;;;19.60;;
60919;SDS011;59039;52.108;19.942;2022-12-04T07:06:11;45.40;;;15.30;;
60919;SDS011;59039;52.108;19.942;2022-12-04T07:08:49;45.20;;;15.60;;
60919;SDS011;59039;52.108;19.942;2022-12-04T07:11:17;53.40;;;20.60;;
60919;SDS011;59039;52.108;19.942;2022-12-04T07:13:43;44.80;;;16.00;;
60919;SDS011;59039;52.108;19.942;2022-12-04T07:16:09;77.30;;;24.50;;
60919;SDS011;59039;52.108;19.942;2022-12-04T07:18:37;47.60;;;17.80;;
60919;SDS011;59039;52.108;19.942;2022-12-04T07:21:09;56.50;;;18.50;;
60919;SDS011;59039;52.108;19.942;2022-12-04T07:23:39;43.20;;;17.00;;
60919;SDS011;59039;52.108;19.942;2022-12-04T07:26:08;46.10;;;17.10;;
60919;SDS011;59039;52.108;19.942;2022-12-04T07:28:35;46.60;;;17.40;;
60919;SDS011;59039;52.108;19.942;2022-12-04T07:31:05;44.70;;;16.40;;
60919;SDS011;59039;52.108;19.942;2022-12-04T07:33:31;46.80;;;18.90;;
60919;SDS011;59039;52.108;19.942;2022-12-04T07:35:57;35.20;;;12.70;;
60919;SDS011;59039;52.108;19.942;2022-12-04T07:38:23;46.30;;;16.80;;
60919;SDS011;59039;52.108;19.942;2022-12-04T07:40:49;48.50;;;18.20;;
60919;SDS011;59039;52.108;19.942;2022-12-04T07:43:14;55.30;;;18.30;;
60919;SDS011;59039;52.108;19.942;2022-12-04T07:45:39;41.60;;;17.90;;
60919;SDS011;59039;52.108;19.942;2022-12-04T07:48:04;42.30;;;17.40;;
60919;SDS011;59039;52.108;19.942;2022-12-04T07:50:29;40.80;;;16.70;;
60919;SDS011;59039;52.108;19.942;2022-12-04T07:52:55;46.70;;;17.40;;
60919;SDS011;59039;52.108;19.942;2022-12-04T07:55:20;47.30;;;17.50;;
60919;SDS011;59039;52.108;19.942;2022-12-04T07:57:45;40.50;;;15.50;;
60919;SDS011;59039;52.108;19.942;2022-12-04T08:00:10;50.80;;;19.10;;
60919;SDS011;59039;52.108;19.942;2022-12-04T08:02:36;37.60;;;14.80;;
60919;SDS011;59039;52.108;19.942;2022-12-04T08:05:01;32.80;;;13.40;;
60919;SDS011;59039;52.108;19.942;2022-12-04T08:07:26;40.10;;;15.20;;
60919;SDS011;59039;52.108;19.942;2022-12-04T08:09:52;40.10;;;15.70;;
60919;SDS011;59039;52.108;19.942;2022-12-04T08:12:17;53.60;;;20.30;;
60919;SDS011;59039;52.108;19.942;2022-12-04T08:14:42;42.20;;;18.10;;
60919;SDS011;59039;52.108;19.942;2022-12-04T08:17:07;42.70;;;15.50;;
60919;SDS011;59039;52.108;19.942;2022-12-04T08:19:32;39.70;;;17.10;;
60919;SDS011;59039;52.108;19.942;2022-12-04T08:21:57;43.50;;;16.00;;
60919;SDS011;59039;52.108;19.942;2022-12-04T08:24:22;32.20;;;15.30;;
60919;SDS011;59039;52.108;19.942;2022-12-04T08:26:48;41.50;;;15.50;;
60919;SDS011;59039;52.108;19.942;2022-12-04T08:29:13;42.80;;;15.50;;
60919;SDS011;59039;52.108;19.942;2022-12-04T08:31:38;44.40;;;18.10;;
60919;SDS011;59039;52.108;19.942;2022-12-04T08:34:04;43.90;;;17.70;;
60919;SDS011;59039;52.108;19.942;2022-12-04T08:36:31;37.40;;;15.90;;
60919;SDS011;59039;52.108;19.942;2022-12-04T08:38:57;44.00;;;17.10;;
60919;SDS011;59039;52.108;19.942;2022-12-04T08:41:22;43.70;;;16.60;;
60919;SDS011;59039;52.108;19.942;2022-12-04T08:43:49;49.40;;;18.50;;
60919;SDS011;59039;52.108;19.942;2022-12-04T08:46:16;56.90;;;20.90;;
60919;SDS011;59039;52.108;19.942;2022-12-04T08:48:42;48.80;;;18.20;;
60919;SDS011;59039;52.108;19.942;2022-12-04T08:51:12;46.90;;;18.10;;
60919;SDS011;59039;52.108;19.942;2022-12-04T08:53:39;60.50;;;21.80;;
60919;SDS011;59039;52.108;19.942;2022-12-04T08:56:05;41.40;;;16.30;;
60919;SDS011;59039;52.108;19.942;2022-12-04T08:58:30;46.40;;;18.00;;
60919;SDS011;59039;52.108;19.942;2022-12-04T09:00:56;43.00;;;17.00;;
60919;SDS011;59039;52.108;19.942;2022-12-04T09:03:28;41.70;;;18.20;;
60919;SDS011;59039;52.108;19.942;2022-12-04T09:05:57;48.50;;;18.40;;
60919;SDS011;59039;52.108;19.942;2022-12-04T09:08:23;45.50;;;19.60;;
60919;SDS011;59039;52.108;19.942;2022-12-04T09:10:48;62.70;;;22.60;;
60919;SDS011;59039;52.108;19.942;2022-12-04T09:13:13;134.80;;;37.70;;
60919;SDS011;59039;52.108;19.942;2022-12-04T09:15:39;99.70;;;30.00;;
60919;SDS011;59039;52.108;19.942;2022-12-04T09:18:05;54.80;;;20.40;;
60919;SDS011;59039;52.108;19.942;2022-12-04T09:20:30;63.40;;;21.70;;
60919;SDS011;59039;52.108;19.942;2022-12-04T09:22:56;54.20;;;22.30;;
60919;SDS011;59039;52.108;19.942;2022-12-04T09:25:21;52.80;;;21.00;;
60919;SDS011;59039;52.108;19.942;2022-12-04T09:27:46;50.60;;;19.10;;
60919;SDS011;59039;52.108;19.942;2022-12-04T09:30:11;59.30;;;21.20;;
60919;SDS011;59039;52.108;19.942;2022-12-04T09:32:37;71.90;;;26.20;;
60919;SDS011;59039;52.108;19.942;2022-12-04T09:35:03;53.60;;;21.10;;
60919;SDS011;59039;52.108;19.942;2022-12-04T09:37:29;44.80;;;17.30;;
60919;SDS011;59039;52.108;19.942;2022-12-04T09:39:55;50.70;;;20.90;;
60919;SDS011;59039;52.108;19.942;2022-12-04T09:42:29;47.10;;;18.60;;
60919;SDS011;59039;52.108;19.942;2022-12-04T09:45:23;57.40;;;22.40;;
60919;SDS011;59039;52.108;19.942;2022-12-04T09:47:51;51.80;;;21.00;;
60919;SDS011;59039;52.108;19.942;2022-12-04T09:50:21;54.20;;;21.20;;
60919;SDS011;59039;52.108;19.942;2022-12-04T09:52:50;52.80;;;19.90;;
60919;SDS011;59039;52.108;19.942;2022-12-04T09:56:03;53.30;;;20.00;;
60919;SDS011;59039;52.108;19.942;2022-12-04T09:58:20;52.00;;;20.20;;
60919;SDS011;59039;52.108;19.942;2022-12-04T10:00:48;45.30;;;17.10;;
60919;SDS011;59039;52.108;19.942;2022-12-04T10:03:16;53.50;;;18.50;;
60919;SDS011;59039;52.108;19.942;2022-12-04T10:05:45;47.40;;;21.20;;
60919;SDS011;59039;52.108;19.942;2022-12-04T10:08:21;55.50;;;19.60;;
60919;SDS011;59039;52.108;19.942;2022-12-04T10:11:39;55.10;;;20.70;;
60919;SDS011;59039;52.108;19.942;2022-12-04T10:22:09;42.80;;;17.10;;
60919;SDS011;59039;52.108;19.942;2022-12-04T10:27:47;54.70;;;20.90;;
60919;SDS011;59039;52.108;19.942;2022-12-04T10:30:22;47.80;;;20.50;;
60919;SDS011;59039;52.108;19.942;2022-12-04T10:32:58;49.30;;;18.60;;
60919;SDS011;59039;52.108;19.942;2022-12-04T10:35:36;38.40;;;15.70;;
60919;SDS011;59039;52.108;19.942;2022-12-04T10:38:08;54.00;;;18.80;;
60919;SDS011;59039;52.108;19.942;2022-12-04T10:40:45;35.90;;;14.30;;
60919;SDS011;59039;52.108;19.942;2022-12-04T10:43:57;51.40;;;19.10;;
60919;SDS011;59039;52.108;19.942;2022-12-04T10:46:14;39.70;;;16.90;;
60919;SDS011;59039;52.108;19.942;2022-12-04T10:48:45;44.20;;;17.90;;
60919;SDS011;59039;52.108;19.942;2022-12-04T10:51:14;29.90;;;13.20;;
60919;SDS011;59039;52.108;19.942;2022-12-04T10:53:41;58.00;;;21.90;;
60919;SDS011;59039;52.108;19.942;2022-12-04T10:56:11;61.10;;;22.60;;
60919;SDS011;59039;52.108;19.942;2022-12-04T10:58:42;48.70;;;21.10;;
60919;SDS011;59039;52.108;19.942;2022-12-04T11:01:19;48.00;;;19.70;;
60919;SDS011;59039;52.108;19.942;2022-12-04T11:03:46;42.30;;;16.70;;
60919;SDS011;59039;52.108;19.942;2022-12-04T11:06:22;44.10;;;16.80;;
60919;SDS011;59039;52.108;19.942;2022-12-04T11:08:49;52.00;;;19.30;;
60919;SDS011;59039;52.108;19.942;2022-12-04T11:11:17;51.10;;;21.20;;
60919;SDS011;59039;52.108;19.942;2022-12-04T11:13:49;59.40;;;24.60;;
60919;SDS011;59039;52.108;19.942;2022-12-04T11:16:32;50.40;;;21.20;;
60919;SDS011;59039;52.108;19.942;2022-12-04T11:18:59;77.90;;;30.80;;
60919;SDS011;59039;52.108;19.942;2022-12-04T11:21:27;58.80;;;22.80;;
60919;SDS011;59039;52.108;19.942;2022-12-04T11:23:54;63.90;;;25.60;;
60919;SDS011;59039;52.108;19.942;2022-12-04T11:26:33;65.90;;;28.10;;
60919;SDS011;59039;52.108;19.942;2022-12-04T11:29:01;62.10;;;24.40;;
60919;SDS011;59039;52.108;19.942;2022-12-04T11:31:27;62.90;;;23.80;;
60919;SDS011;59039;52.108;19.942;2022-12-04T11:33:55;58.40;;;22.30;;
60919;SDS011;59039;52.108;19.942;2022-12-04T11:36:25;74.40;;;26.90;;
60919;SDS011;59039;52.108;19.942;2022-12-04T11:39:02;98.20;;;32.60;;
60919;SDS011;59039;52.108;19.942;2022-12-04T11:41:31;71.80;;;27.80;;
60919;SDS011;59039;52.108;19.942;2022-12-04T11:43:57;68.10;;;26.70;;
60919;SDS011;59039;52.108;19.942;2022-12-04T11:46:24;56.80;;;22.20;;
60919;SDS011;59039;52.108;19.942;2022-12-04T11:48:51;57.70;;;21.40;;
60919;SDS011;59039;52.108;19.942;2022-12-04T11:51:23;53.70;;;21.40;;
60919;SDS011;59039;52.108;19.942;2022-12-04T11:54:15;40.70;;;19.10;;
60919;SDS011;59039;52.108;19.942;2022-12-04T11:56:59;55.70;;;21.20;;
60919;SDS011;59039;52.108;19.942;2022-12-04T11:59:49;62.20;;;25.00;;
60919;SDS011;59039;52.108;19.942;2022-12-04T12:02:39;59.00;;;24.20;;
60919;SDS011;59039;52.108;19.942;2022-12-04T12:05:20;69.70;;;28.00;;
60919;SDS011;59039;52.108;19.942;2022-12-04T12:10:40;83.10;;;37.70;;
60919;SDS011;59039;52.108;19.942;2022-12-04T12:24:30;81.20;;;29.80;;
60919;SDS011;59039;52.108;19.942;2022-12-04T12:35:17;77.60;;;31.30;;
60919;SDS011;59039;52.108;19.942;2022-12-04T12:37:48;71.00;;;27.20;;
60919;SDS011;59039;52.108;19.942;2022-12-04T12:48:34;53.00;;;23.50;;
60919;SDS011;59039;52.108;19.942;2022-12-04T12:53:37;54.60;;;23.80;;
60919;SDS011;59039;52.108;19.942;2022-12-04T12:56:06;65.30;;;28.40;;
60919;SDS011;59039;52.108;19.942;2022-12-04T12:58:39;60.60;;;23.70;;
60919;SDS011;59039;52.108;19.942;2022-12-04T13:01:16;57.30;;;23.50;;
60919;SDS011;59039;52.108;19.942;2022-12-04T13:06:23;64.80;;;26.00;;
60919;SDS011;59039;52.108;19.942;2022-12-04T13:11:45;60.30;;;27.10;;
60919;SDS011;59039;52.108;19.942;2022-12-04T13:14:14;77.20;;;32.00;;
60919;SDS011;59039;52.108;19.942;2022-12-04T13:16:49;73.30;;;30.90;;
60919;SDS011;59039;52.108;19.942;2022-12-04T13:27:25;60.10;;;23.70;;
60919;SDS011;59039;52.108;19.942;2022-12-04T13:32:46;63.20;;;26.30;;
60919;SDS011;59039;52.108;19.942;2022-12-04T13:41:21;55.40;;;21.20;;
60919;SDS011;59039;52.108;19.942;2022-12-04T13:43:49;62.50;;;26.70;;
60919;SDS011;59039;52.108;19.942;2022-12-04T13:49:22;57.00;;;22.90;;
60919;SDS011;59039;52.108;19.942;2022-12-04T13:51:53;59.30;;;23.40;;
60919;SDS011;59039;52.108;19.942;2022-12-04T13:54:21;62.30;;;23.50;;
60919;SDS011;59039;52.108;19.942;2022-12-04T13:56:51;65.00;;;22.70;;
60919;SDS011;59039;52.108;19.942;2022-12-04T14:01:56;61.40;;;23.10;;
60919;SDS011;59039;52.108;19.942;2022-12-04T14:04:27;49.10;;;21.60;;
60919;SDS011;59039;52.108;19.942;2022-12-04T14:06:56;45.30;;;19.10;;
60919;SDS011;59039;52.108;19.942;2022-12-04T14:09:27;45.50;;;17.80;;
60919;SDS011;59039;52.108;19.942;2022-12-04T14:12:01;62.20;;;20.60;;
60919;SDS011;59039;52.108;19.942;2022-12-04T14:14:31;49.70;;;20.60;;
60919;SDS011;59039;52.108;19.942;2022-12-04T14:17:03;51.10;;;22.10;;
60919;SDS011;59039;52.108;19.942;2022-12-04T14:22:03;44.30;;;20.90;;
60919;SDS011;59039;52.108;19.942;2022-12-04T14:24:33;58.00;;;23.70;;
60919;SDS011;59039;52.108;19.942;2022-12-04T14:27:28;61.60;;;25.00;;
60919;SDS011;59039;52.108;19.942;2022-12-04T14:29:57;77.50;;;28.80;;
60919;SDS011;59039;52.108;19.942;2022-12-04T14:32:26;63.10;;;21.90;;
60919;SDS011;59039;52.108;19.942;2022-12-04T14:34:55;86.40;;;27.40;;
60919;SDS011;59039;52.108;19.942;2022-12-04T14:39:56;74.00;;;27.50;;
60919;SDS011;59039;52.108;19.942;2022-12-04T14:42:35;55.10;;;20.70;;
60919;SDS011;59039;52.108;19.942;2022-12-04T14:45:03;56.70;;;23.10;;
60919;SDS011;59039;52.108;19.942;2022-12-04T14:47:55;56.50;;;22.00;;
60919;SDS011;59039;52.108;19.942;2022-12-04T14:50:41;43.00;;;18.70;;
60919;SDS011;59039;52.108;19.942;2022-12-04T14:53:32;51.50;;;22.10;;
60919;SDS011;59039;52.108;19.942;2022-12-04T14:56:14;49.70;;;19.60;;
60919;SDS011;59039;52.108;19.942;2022-12-04T14:58:48;54.40;;;21.40;;
60919;SDS011;59039;52.108;19.942;2022-12-04T15:01:18;62.60;;;22.30;;
60919;SDS011;59039;52.108;19.942;2022-12-04T15:03:46;41.60;;;19.50;;
60919;SDS011;59039;52.108;19.942;2022-12-04T15:08:50;48.70;;;20.00;;
60919;SDS011;59039;52.108;19.942;2022-12-04T15:11:20;47.70;;;18.90;;
60919;SDS011;59039;52.108;19.942;2022-12-04T15:13:45;43.40;;;20.70;;
60919;SDS011;59039;52.108;19.942;2022-12-04T15:16:18;50.90;;;22.20;;
60919;SDS011;59039;52.108;19.942;2022-12-04T15:18:55;46.50;;;20.90;;
60919;SDS011;59039;52.108;19.942;2022-12-04T15:21:22;59.00;;;25.70;;
60919;SDS011;59039;52.108;19.942;2022-12-04T15:24:09;45.70;;;17.80;;
60919;SDS011;59039;52.108;19.942;2022-12-04T15:26:43;50.00;;;22.80;;
60919;SDS011;59039;52.108;19.942;2022-12-04T15:29:11;65.50;;;25.00;;
60919;SDS011;59039;52.108;19.942;2022-12-04T15:31:44;52.40;;;21.00;;
60919;SDS011;59039;52.108;19.942;2022-12-04T15:34:13;61.30;;;24.70;;
60919;SDS011;59039;52.108;19.942;2022-12-04T15:36:47;54.10;;;21.80;;
60919;SDS011;59039;52.108;19.942;2022-12-04T15:39:17;57.90;;;25.10;;
60919;SDS011;59039;52.108;19.942;2022-12-04T15:41:45;47.20;;;20.20;;
60919;SDS011;59039;52.108;19.942;2022-12-04T15:44:21;47.60;;;20.30;;
60919;SDS011;59039;52.108;19.942;2022-12-04T15:46:49;49.50;;;22.30;;
60919;SDS011;59039;52.108;19.942;2022-12-04T15:49:15;52.00;;;21.00;;
60919;SDS011;59039;52.108;19.942;2022-12-04T15:51:45;54.00;;;24.70;;
60919;SDS011;59039;52.108;19.942;2022-12-04T15:54:17;63.30;;;27.20;;
60919;SDS011;59039;52.108;19.942;2022-12-04T15:56:59;66.20;;;27.20;;
60919;SDS011;59039;52.108;19.942;2022-12-04T15:59:26;55.40;;;22.50;;
60919;SDS011;59039;52.108;19.942;2022-12-04T16:01:53;60.00;;;25.60;;
60919;SDS011;59039;52.108;19.942;2022-12-04T16:04:20;55.40;;;23.50;;
60919;SDS011;59039;52.108;19.942;2022-12-04T16:06:47;58.70;;;23.70;;
60919;SDS011;59039;52.108;19.942;2022-12-04T16:11:55;52.50;;;24.00;;
60919;SDS011;59039;52.108;19.942;2022-12-04T16:14:40;48.60;;;21.90;;